sensor_id;sensor_type;location;lat;lon;timestamp;temperature;humidity
3792;DHT22;1911;53.768;11.474;2022-12-07T00:01:15;1.30;99.90
3792;DHT22;1911;53.768;11.474;2022-12-07T00:03:43;1.30;99.90
3792;DHT22;1911;53.768;11.474;2022-12-07T00:06:11;1.30;99.90
3792;DHT22;1911;53.768;11.474;2022-12-07T00:08:38;1.30;99.90
3792;DHT22;1911;53.768;11.474;2022-12-07T00:11:04;1.40;99.90
3792;DHT22;1911;53.768;11.474;2022-12-07T00:13:31;1.40;99.90
3792;DHT22;1911;53.768;11.474;2022-12-07T00:16:08;1.40;99.90
3792;DHT22;1911;53.768;11.474;2022-12-07T00:18:36;1.40;99.90
3792;DHT22;1911;53.768;11.474;2022-12-07T00:21:09;1.40;99.90
3792;DHT22;1911;53.768;11.474;2022-12-07T00:23:35;1.50;99.90
3792;DHT22;1911;53.768;11.474;2022-12-07T00:26:12;1.50;99.90
3792;DHT22;1911;53.768;11.474;2022-12-07T00:28:38;1.50;99.90
3792;DHT22;1911;53.768;11.474;2022-12-07T00:31:10;1.50;99.90
3792;DHT22;1911;53.768;11.474;2022-12-07T00:33:36;1.60;99.90
3792;DHT22;1911;53.768;11.474;2022-12-07T00:36:05;1.60;99.90
3792;DHT22;1911;53.768;11.474;2022-12-07T00:38:33;1.60;99.90
3792;DHT22;1911;53.768;11.474;2022-12-07T00:41:01;1.70;99.90
3792;DHT22;1911;53.768;11.474;2022-12-07T00:43:27;1.70;99.90
3792;DHT22;1911;53.768;11.474;2022-12-07T00:45:53;1.70;99.90
3792;DHT22;1911;53.768;11.474;2022-12-07T00:48:19;1.80;99.90
3792;DHT22;1911;53.768;11.474;2022-12-07T00:50:45;1.80;99.90
3792;DHT22;1911;53.768;11.474;2022-12-07T00:53:10;1.80;99.90
3792;DHT22;1911;53.768;11.474;2022-12-07T00:55:36;1.80;99.90
3792;DHT22;1911;53.768;11.474;2022-12-07T00:58:02;1.80;99.90
3792;DHT22;1911;53.768;11.474;2022-12-07T01:00:28;1.80;99.90
3792;DHT22;1911;53.768;11.474;2022-12-07T01:02:54;1.90;99.90
3792;DHT22;1911;53.768;11.474;2022-12-07T01:05:20;1.80;99.90
3792;DHT22;1911;53.768;11.474;2022-12-07T01:07:45;1.80;99.90
3792;DHT22;1911;53.768;11.474;2022-12-07T01:10:12;1.70;99.90
3792;DHT22;1911;53.768;11.474;2022-12-07T01:12:38;1.70;99.90
3792;DHT22;1911;53.768;11.474;2022-12-07T01:15:05;1.80;99.90
3792;DHT22;1911;53.768;11.474;2022-12-07T01:17:31;1.80;99.90
3792;DHT22;1911;53.768;11.474;2022-12-07T01:19:56;1.70;99.90
3792;DHT22;1911;53.768;11.474;2022-12-07T01:22:22;1.70;99.90
3792;DHT22;1911;53.768;11.474;2022-12-07T01:24:47;1.60;99.90
3792;DHT22;1911;53.768;11.474;2022-12-07T01:27:13;1.60;99.90
3792;DHT22;1911;53.768;11.474;2022-12-07T01:29:39;1.60;99.90
3792;DHT22;1911;53.768;11.474;2022-12-07T01:32:04;1.60;99.90
3792;DHT22;1911;53.768;11.474;2022-12-07T01:34:30;1.70;99.90
3792;DHT22;1911;53.768;11.474;2022-12-07T01:36:55;1.60;99.90
3792;DHT22;1911;53.768;11.474;2022-12-07T01:39:21;1.70;99.90
3792;DHT22;1911;53.768;11.474;2022-12-07T01:41:47;1.70;99.90
3792;DHT22;1911;53.768;11.474;2022-12-07T01:44:25;1.70;99.90
3792;DHT22;1911;53.768;11.474;2022-12-07T01:46:55;1.80;99.90
3792;DHT22;1911;53.768;11.474;2022-12-07T01:49:35;1.80;99.90
3792;DHT22;1911;53.768;11.474;2022-12-07T01:52:25;1.80;99.90
3792;DHT22;1911;53.768;11.474;2022-12-07T01:54:56;1.90;99.90
3792;DHT22;1911;53.768;11.474;2022-12-07T01:57:22;1.90;99.90
3792;DHT22;1911;53.768;11.474;2022-12-07T01:59:50;1.90;99.90
3792;DHT22;1911;53.768;11.474;2022-12-07T02:02:26;1.90;99.90
3792;DHT22;1911;53.768;11.474;2022-12-07T02:04:55;2.00;99.90
3792;DHT22;1911;53.768;11.474;2022-12-07T02:07:23;1.90;99.90
3792;DHT22;1911;53.768;11.474;2022-12-07T02:09:49;1.90;99.90
3792;DHT22;1911;53.768;11.474;2022-12-07T02:12:15;1.90;99.90
3792;DHT22;1911;53.768;11.474;2022-12-07T02:14:52;2.00;99.90
3792;DHT22;1911;53.768;11.474;2022-12-07T02:30:50;2.10;99.90
3792;DHT22;1911;53.768;11.474;2022-12-07T02:33:28;2.10;99.90
3792;DHT22;1911;53.768;11.474;2022-12-07T02:35:59;2.10;99.90
3792;DHT22;1911;53.768;11.474;2022-12-07T02:40:59;2.10;99.90
3792;DHT22;1911;53.768;11.474;2022-12-07T02:43:28;2.10;99.90
3792;DHT22;1911;53.768;11.474;2022-12-07T02:45:59;2.20;99.90
3792;DHT22;1911;53.768;11.474;2022-12-07T02:48:27;2.20;99.90
3792;DHT22;1911;53.768;11.474;2022-12-07T02:50:54;2.20;99.90
3792;DHT22;1911;53.768;11.474;2022-12-07T03:02:00;2.20;99.90
3792;DHT22;1911;53.768;11.474;2022-12-07T03:10:35;2.30;99.90
3792;DHT22;1911;53.768;11.474;2022-12-07T03:15:43;2.30;99.90
3792;DHT22;1911;53.768;11.474;2022-12-07T03:18:12;2.30;99.90
3792;DHT22;1911;53.768;11.474;2022-12-07T03:20:39;2.30;99.90
3792;DHT22;1911;53.768;11.474;2022-12-07T03:23:08;2.30;99.90
3792;DHT22;1911;53.768;11.474;2022-12-07T03:25:42;2.30;99.90
3792;DHT22;1911;53.768;11.474;2022-12-07T03:28:14;2.40;99.90
3792;DHT22;1911;53.768;11.474;2022-12-07T03:30:48;2.40;99.90
3792;DHT22;1911;53.768;11.474;2022-12-07T03:33:20;2.40;99.90
3792;DHT22;1911;53.768;11.474;2022-12-07T03:35:53;2.40;99.90
3792;DHT22;1911;53.768;11.474;2022-12-07T03:38:32;2.30;99.90
3792;DHT22;1911;53.768;11.474;2022-12-07T03:41:16;2.20;99.90
3792;DHT22;1911;53.768;11.474;2022-12-07T03:43:44;2.10;99.90
3792;DHT22;1911;53.768;11.474;2022-12-07T03:46:40;2.10;99.90
3792;DHT22;1911;53.768;11.474;2022-12-07T03:49:26;2.10;99.90
3792;DHT22;1911;53.768;11.474;2022-12-07T03:52:04;2.10;99.90
3792;DHT22;1911;53.768;11.474;2022-12-07T03:57:06;2.10;99.90
3792;DHT22;1911;53.768;11.474;2022-12-07T03:59:33;2.10;99.90
3792;DHT22;1911;53.768;11.474;2022-12-07T04:02:04;2.20;99.90
3792;DHT22;1911;53.768;11.474;2022-12-07T04:04:30;2.20;99.90
3792;DHT22;1911;53.768;11.474;2022-12-07T04:06:56;2.30;99.90
3792;DHT22;1911;53.768;11.474;2022-12-07T04:09:21;2.30;99.90
3792;DHT22;1911;53.768;11.474;2022-12-07T04:11:47;2.40;99.90
3792;DHT22;1911;53.768;11.474;2022-12-07T04:14:13;2.40;99.90
3792;DHT22;1911;53.768;11.474;2022-12-07T04:16:46;2.40;99.90
3792;DHT22;1911;53.768;11.474;2022-12-07T04:19:12;2.30;99.90
3792;DHT22;1911;53.768;11.474;2022-12-07T04:21:38;2.40;99.90
3792;DHT22;1911;53.768;11.474;2022-12-07T04:24:04;2.30;99.90
3792;DHT22;1911;53.768;11.474;2022-12-07T04:26:30;2.30;99.90
3792;DHT22;1911;53.768;11.474;2022-12-07T04:28:56;2.40;99.90
3792;DHT22;1911;53.768;11.474;2022-12-07T04:31:21;2.40;99.90
3792;DHT22;1911;53.768;11.474;2022-12-07T04:33:47;2.40;99.90
3792;DHT22;1911;53.768;11.474;2022-12-07T04:36:12;2.40;99.90
3792;DHT22;1911;53.768;11.474;2022-12-07T04:38:38;2.40;99.90
3792;DHT22;1911;53.768;11.474;2022-12-07T04:41:07;2.50;99.90
3792;DHT22;1911;53.768;11.474;2022-12-07T04:43:34;2.50;99.90
3792;DHT22;1911;53.768;11.474;2022-12-07T04:46:00;2.50;99.90
3792;DHT22;1911;53.768;11.474;2022-12-07T04:48:25;2.50;99.90
3792;DHT22;1911;53.768;11.474;2022-12-07T04:50:51;2.50;99.90
3792;DHT22;1911;53.768;11.474;2022-12-07T04:53:16;2.40;99.90
3792;DHT22;1911;53.768;11.474;2022-12-07T04:55:42;2.40;99.90
3792;DHT22;1911;53.768;11.474;2022-12-07T04:58:08;2.40;99.90
3792;DHT22;1911;53.768;11.474;2022-12-07T05:00:34;2.40;99.90
3792;DHT22;1911;53.768;11.474;2022-12-07T05:02:59;2.40;99.90
3792;DHT22;1911;53.768;11.474;2022-12-07T05:05:25;2.40;99.90
3792;DHT22;1911;53.768;11.474;2022-12-07T05:07:50;2.40;99.90
3792;DHT22;1911;53.768;11.474;2022-12-07T05:10:16;2.40;99.90
3792;DHT22;1911;53.768;11.474;2022-12-07T05:12:42;2.40;99.90
3792;DHT22;1911;53.768;11.474;2022-12-07T05:15:08;2.40;99.90
3792;DHT22;1911;53.768;11.474;2022-12-07T05:17:33;2.40;99.90
3792;DHT22;1911;53.768;11.474;2022-12-07T05:19:59;2.40;99.90
3792;DHT22;1911;53.768;11.474;2022-12-07T05:22:25;2.40;99.90
3792;DHT22;1911;53.768;11.474;2022-12-07T05:24:54;2.40;99.90
3792;DHT22;1911;53.768;11.474;2022-12-07T05:27:19;2.40;99.90
3792;DHT22;1911;53.768;11.474;2022-12-07T05:29:45;2.40;99.90
3792;DHT22;1911;53.768;11.474;2022-12-07T05:32:11;2.40;99.90
3792;DHT22;1911;53.768;11.474;2022-12-07T05:34:36;2.30;99.90
3792;DHT22;1911;53.768;11.474;2022-12-07T05:37:02;2.30;99.90
3792;DHT22;1911;53.768;11.474;2022-12-07T05:39:27;2.30;99.90
3792;DHT22;1911;53.768;11.474;2022-12-07T05:41:53;2.30;99.90
3792;DHT22;1911;53.768;11.474;2022-12-07T05:44:37;2.30;99.90
3792;DHT22;1911;53.768;11.474;2022-12-07T05:47:03;2.30;99.90
3792;DHT22;1911;53.768;11.474;2022-12-07T05:49:28;2.20;99.90
3792;DHT22;1911;53.768;11.474;2022-12-07T05:51:54;2.20;99.90
3792;DHT22;1911;53.768;11.474;2022-12-07T05:54:19;2.20;99.90
3792;DHT22;1911;53.768;11.474;2022-12-07T05:56:45;2.20;99.90
3792;DHT22;1911;53.768;11.474;2022-12-07T05:59:11;2.20;99.90
3792;DHT22;1911;53.768;11.474;2022-12-07T06:04:18;2.20;99.90
3792;DHT22;1911;53.768;11.474;2022-12-07T06:06:44;2.20;99.90
3792;DHT22;1911;53.768;11.474;2022-12-07T06:09:10;2.10;99.90
3792;DHT22;1911;53.768;11.474;2022-12-07T06:11:38;2.20;99.90
3792;DHT22;1911;53.768;11.474;2022-12-07T06:14:22;2.10;99.90
3792;DHT22;1911;53.768;11.474;2022-12-07T06:16:47;2.10;99.90
3792;DHT22;1911;53.768;11.474;2022-12-07T06:19:13;2.00;99.90
3792;DHT22;1911;53.768;11.474;2022-12-07T06:21:38;2.00;99.90
3792;DHT22;1911;53.768;11.474;2022-12-07T06:24:04;2.00;99.90
3792;DHT22;1911;53.768;11.474;2022-12-07T06:26:30;2.00;99.90
3792;DHT22;1911;53.768;11.474;2022-12-07T06:28:55;2.00;99.90
3792;DHT22;1911;53.768;11.474;2022-12-07T06:31:21;2.00;99.90
3792;DHT22;1911;53.768;11.474;2022-12-07T06:33:46;2.00;99.90
3792;DHT22;1911;53.768;11.474;2022-12-07T06:36:12;2.00;99.90
3792;DHT22;1911;53.768;11.474;2022-12-07T06:38:38;2.00;99.90
3792;DHT22;1911;53.768;11.474;2022-12-07T06:41:03;2.00;99.90
3792;DHT22;1911;53.768;11.474;2022-12-07T06:43:29;2.10;99.90
3792;DHT22;1911;53.768;11.474;2022-12-07T06:45:55;2.10;99.90
3792;DHT22;1911;53.768;11.474;2022-12-07T06:48:20;2.10;99.90
3792;DHT22;1911;53.768;11.474;2022-12-07T06:50:47;2.10;99.90
3792;DHT22;1911;53.768;11.474;2022-12-07T06:53:13;2.10;99.90
3792;DHT22;1911;53.768;11.474;2022-12-07T06:55:39;2.00;99.90
3792;DHT22;1911;53.768;11.474;2022-12-07T06:58:04;2.10;99.90
3792;DHT22;1911;53.768;11.474;2022-12-07T07:00:30;2.00;99.90
3792;DHT22;1911;53.768;11.474;2022-12-07T07:02:55;2.10;99.90
3792;DHT22;1911;53.768;11.474;2022-12-07T07:05:21;2.00;99.90
3792;DHT22;1911;53.768;11.474;2022-12-07T07:07:50;1.90;99.90
3792;DHT22;1911;53.768;11.474;2022-12-07T07:10:15;1.80;99.90
3792;DHT22;1911;53.768;11.474;2022-12-07T07:12:41;1.70;99.90
3792;DHT22;1911;53.768;11.474;2022-12-07T07:15:07;1.60;99.90
3792;DHT22;1911;53.768;11.474;2022-12-07T07:17:32;1.60;99.90
3792;DHT22;1911;53.768;11.474;2022-12-07T07:19:58;1.60;99.90
3792;DHT22;1911;53.768;11.474;2022-12-07T07:22:23;1.50;99.90
3792;DHT22;1911;53.768;11.474;2022-12-07T07:24:49;1.40;99.90
3792;DHT22;1911;53.768;11.474;2022-12-07T07:27:14;1.40;99.90
3792;DHT22;1911;53.768;11.474;2022-12-07T07:29:40;1.40;99.90
3792;DHT22;1911;53.768;11.474;2022-12-07T07:32:05;1.40;99.90
3792;DHT22;1911;53.768;11.474;2022-12-07T07:34:32;1.40;99.90
3792;DHT22;1911;53.768;11.474;2022-12-07T07:36:58;1.40;99.90
3792;DHT22;1911;53.768;11.474;2022-12-07T07:39:24;1.40;99.90
3792;DHT22;1911;53.768;11.474;2022-12-07T07:41:49;1.40;99.90
3792;DHT22;1911;53.768;11.474;2022-12-07T07:44:15;1.30;99.90
3792;DHT22;1911;53.768;11.474;2022-12-07T07:46:40;1.20;99.90
3792;DHT22;1911;53.768;11.474;2022-12-07T07:49:06;1.10;99.90
3792;DHT22;1911;53.768;11.474;2022-12-07T07:51:31;1.10;99.90
3792;DHT22;1911;53.768;11.474;2022-12-07T07:53:57;1.10;99.90
3792;DHT22;1911;53.768;11.474;2022-12-07T07:56:22;1.00;99.90
3792;DHT22;1911;53.768;11.474;2022-12-07T07:58:52;0.90;99.90
3792;DHT22;1911;53.768;11.474;2022-12-07T08:01:17;0.90;99.90
3792;DHT22;1911;53.768;11.474;2022-12-07T08:03:45;0.90;99.90
3792;DHT22;1911;53.768;11.474;2022-12-07T08:06:11;0.90;99.90
3792;DHT22;1911;53.768;11.474;2022-12-07T08:08:37;0.90;99.90
3792;DHT22;1911;53.768;11.474;2022-12-07T08:11:05;1.00;99.90
3792;DHT22;1911;53.768;11.474;2022-12-07T08:13:31;1.00;99.90
3792;DHT22;1911;53.768;11.474;2022-12-07T08:15:56;1.00;99.90
3792;DHT22;1911;53.768;11.474;2022-12-07T08:18:22;1.00;99.90
3792;DHT22;1911;53.768;11.474;2022-12-07T08:20:48;1.00;99.90
3792;DHT22;1911;53.768;11.474;2022-12-07T08:23:13;1.00;99.90
3792;DHT22;1911;53.768;11.474;2022-12-07T08:25:39;1.10;99.90
3792;DHT22;1911;53.768;11.474;2022-12-07T08:28:05;1.00;99.90
3792;DHT22;1911;53.768;11.474;2022-12-07T08:30:31;1.00;99.90
3792;DHT22;1911;53.768;11.474;2022-12-07T08:32:56;1.00;99.90
3792;DHT22;1911;53.768;11.474;2022-12-07T08:35:22;1.00;99.90
3792;DHT22;1911;53.768;11.474;2022-12-07T08:37:48;1.00;99.90
3792;DHT22;1911;53.768;11.474;2022-12-07T08:40:14;1.00;99.90
3792;DHT22;1911;53.768;11.474;2022-12-07T08:42:47;1.10;99.90
3792;DHT22;1911;53.768;11.474;2022-12-07T08:45:15;1.00;99.90
3792;DHT22;1911;53.768;11.474;2022-12-07T08:47:50;1.00;99.90
3792;DHT22;1911;53.768;11.474;2022-12-07T08:50:17;1.00;99.90
3792;DHT22;1911;53.768;11.474;2022-12-07T08:52:43;1.00;99.90
3792;DHT22;1911;53.768;11.474;2022-12-07T08:55:10;1.10;99.90
3792;DHT22;1911;53.768;11.474;2022-12-07T08:57:36;1.00;99.90
3792;DHT22;1911;53.768;11.474;2022-12-07T09:00:04;1.00;99.90
3792;DHT22;1911;53.768;11.474;2022-12-07T09:02:31;1.20;99.90
3792;DHT22;1911;53.768;11.474;2022-12-07T09:04:56;1.40;99.90
3792;DHT22;1911;53.768;11.474;2022-12-07T09:07:22;1.40;99.90
3792;DHT22;1911;53.768;11.474;2022-12-07T09:09:48;1.50;99.90
3792;DHT22;1911;53.768;11.474;2022-12-07T09:12:14;1.40;99.90
3792;DHT22;1911;53.768;11.474;2022-12-07T09:14:39;1.40;99.90
3792;DHT22;1911;53.768;11.474;2022-12-07T09:17:06;1.50;99.90
3792;DHT22;1911;53.768;11.474;2022-12-07T09:19:32;1.50;99.90
3792;DHT22;1911;53.768;11.474;2022-12-07T09:21:58;1.50;99.90
3792;DHT22;1911;53.768;11.474;2022-12-07T09:24:23;1.50;99.90
3792;DHT22;1911;53.768;11.474;2022-12-07T09:26:49;1.70;99.90
3792;DHT22;1911;53.768;11.474;2022-12-07T09:29:14;1.80;99.90
3792;DHT22;1911;53.768;11.474;2022-12-07T09:31:40;1.80;99.90
3792;DHT22;1911;53.768;11.474;2022-12-07T09:34:05;1.90;99.90
3792;DHT22;1911;53.768;11.474;2022-12-07T09:36:32;1.90;99.90
3792;DHT22;1911;53.768;11.474;2022-12-07T09:38:58;1.90;99.90
3792;DHT22;1911;53.768;11.474;2022-12-07T09:41:25;1.80;99.90
3792;DHT22;1911;53.768;11.474;2022-12-07T09:43:53;1.80;99.90
3792;DHT22;1911;53.768;11.474;2022-12-07T09:46:23;1.80;99.90
3792;DHT22;1911;53.768;11.474;2022-12-07T09:48:49;1.80;99.90
3792;DHT22;1911;53.768;11.474;2022-12-07T09:51:21;1.80;99.90
3792;DHT22;1911;53.768;11.474;2022-12-07T09:53:48;1.90;99.90
3792;DHT22;1911;53.768;11.474;2022-12-07T09:56:16;1.90;99.90
3792;DHT22;1911;53.768;11.474;2022-12-07T09:58:42;1.90;99.90
3792;DHT22;1911;53.768;11.474;2022-12-07T10:03:39;1.90;99.90
3792;DHT22;1911;53.768;11.474;2022-12-07T10:06:05;1.90;99.90
3792;DHT22;1911;53.768;11.474;2022-12-07T10:08:32;2.00;99.90
3792;DHT22;1911;53.768;11.474;2022-12-07T10:10:59;2.00;99.90
3792;DHT22;1911;53.768;11.474;2022-12-07T10:13:45;2.00;99.90
3792;DHT22;1911;53.768;11.474;2022-12-07T10:18:51;2.20;99.90
3792;DHT22;1911;53.768;11.474;2022-12-07T10:21:19;2.20;99.90
3792;DHT22;1911;53.768;11.474;2022-12-07T10:31:53;2.30;99.90
3792;DHT22;1911;53.768;11.474;2022-12-07T10:34:40;2.30;99.90
3792;DHT22;1911;53.768;11.474;2022-12-07T10:39:49;2.40;99.90
3792;DHT22;1911;53.768;11.474;2022-12-07T10:42:26;2.40;99.90
3792;DHT22;1911;53.768;11.474;2022-12-07T10:45:24;2.30;99.90
3792;DHT22;1911;53.768;11.474;2022-12-07T10:56:49;2.40;99.90
3792;DHT22;1911;53.768;11.474;2022-12-07T10:59:28;2.40;99.90
3792;DHT22;1911;53.768;11.474;2022-12-07T11:09:56;2.40;99.90
3792;DHT22;1911;53.768;11.474;2022-12-07T11:12:51;2.40;99.90
3792;DHT22;1911;53.768;11.474;2022-12-07T11:18:23;2.50;99.90
3792;DHT22;1911;53.768;11.474;2022-12-07T11:21:12;2.60;99.90
3792;DHT22;1911;53.768;11.474;2022-12-07T11:26:32;2.70;7.70
3792;DHT22;1911;53.768;11.474;2022-12-07T11:35:21;2.70;1.00
3792;DHT22;1911;53.768;11.474;2022-12-07T11:37:53;2.70;1.00
3792;DHT22;1911;53.768;11.474;2022-12-07T11:40:27;2.80;1.00
3792;DHT22;1911;53.768;11.474;2022-12-07T11:45:50;2.80;1.00
3792;DHT22;1911;53.768;11.474;2022-12-07T11:48:33;2.90;1.00
3792;DHT22;1911;53.768;11.474;2022-12-07T11:51:01;2.90;1.00
3792;DHT22;1911;53.768;11.474;2022-12-07T11:53:36;3.00;1.00
3792;DHT22;1911;53.768;11.474;2022-12-07T11:56:11;3.00;1.00
3792;DHT22;1911;53.768;11.474;2022-12-07T11:59:01;3.00;1.00
3792;DHT22;1911;53.768;11.474;2022-12-07T12:06:44;3.00;1.00
3792;DHT22;1911;53.768;11.474;2022-12-07T12:09:14;3.00;1.00
3792;DHT22;1911;53.768;11.474;2022-12-07T12:22:58;2.90;99.90
3792;DHT22;1911;53.768;11.474;2022-12-07T12:25:34;2.80;99.90
3792;DHT22;1911;53.768;11.474;2022-12-07T12:28:02;2.80;99.90
3792;DHT22;1911;53.768;11.474;2022-12-07T12:30:33;2.70;99.90
3792;DHT22;1911;53.768;11.474;2022-12-07T12:33:27;2.70;99.90
3792;DHT22;1911;53.768;11.474;2022-12-07T12:46:50;2.90;99.90
3792;DHT22;1911;53.768;11.474;2022-12-07T13:02:39;2.70;1.00
3792;DHT22;1911;53.768;11.474;2022-12-07T13:15:43;2.60;1.00
3792;DHT22;1911;53.768;11.474;2022-12-07T13:34:04;2.40;1.00
3792;DHT22;1911;53.768;11.474;2022-12-07T13:36:37;2.40;99.90
3792;DHT22;1911;53.768;11.474;2022-12-07T13:39:21;2.40;1.00
3792;DHT22;1911;53.768;11.474;2022-12-07T13:41:56;2.40;1.00
3792;DHT22;1911;53.768;11.474;2022-12-07T13:44:27;2.40;1.00
3792;DHT22;1911;53.768;11.474;2022-12-07T13:47:09;2.40;1.00
3792;DHT22;1911;53.768;11.474;2022-12-07T13:49:46;2.40;1.00
3792;DHT22;1911;53.768;11.474;2022-12-07T13:52:23;2.40;99.90
3792;DHT22;1911;53.768;11.474;2022-12-07T13:54:59;2.30;1.00
3792;DHT22;1911;53.768;11.474;2022-12-07T13:57:26;2.30;1.00
3792;DHT22;1911;53.768;11.474;2022-12-07T13:59:52;2.30;1.00
3792;DHT22;1911;53.768;11.474;2022-12-07T14:02:24;2.30;1.00
3792;DHT22;1911;53.768;11.474;2022-12-07T14:04:50;2.30;1.00
3792;DHT22;1911;53.768;11.474;2022-12-07T14:07:27;2.30;1.00
3792;DHT22;1911;53.768;11.474;2022-12-07T14:09:59;2.30;1.00
3792;DHT22;1911;53.768;11.474;2022-12-07T14:12:27;2.20;1.00
3792;DHT22;1911;53.768;11.474;2022-12-07T14:14:54;2.20;1.00
3792;DHT22;1911;53.768;11.474;2022-12-07T14:17:22;2.20;1.00
3792;DHT22;1911;53.768;11.474;2022-12-07T14:19:52;2.20;1.00
3792;DHT22;1911;53.768;11.474;2022-12-07T14:22:33;2.10;1.00
3792;DHT22;1911;53.768;11.474;2022-12-07T14:25:20;2.10;1.00
3792;DHT22;1911;53.768;11.474;2022-12-07T14:27:54;2.10;1.00
3792;DHT22;1911;53.768;11.474;2022-12-07T14:30:26;2.00;1.00
3792;DHT22;1911;53.768;11.474;2022-12-07T14:32:58;2.00;1.00
3792;DHT22;1911;53.768;11.474;2022-12-07T14:35:25;2.00;1.00
3792;DHT22;1911;53.768;11.474;2022-12-07T14:37:52;1.90;1.00
3792;DHT22;1911;53.768;11.474;2022-12-07T14:40:26;1.90;1.00
3792;DHT22;1911;53.768;11.474;2022-12-07T14:43:02;1.90;1.00
3792;DHT22;1911;53.768;11.474;2022-12-07T14:45:28;1.80;1.00
3792;DHT22;1911;53.768;11.474;2022-12-07T14:47:53;1.80;1.00
3792;DHT22;1911;53.768;11.474;2022-12-07T14:50:20;1.70;45.70
3792;DHT22;1911;53.768;11.474;2022-12-07T14:52:51;1.60;99.90
3792;DHT22;1911;53.768;11.474;2022-12-07T14:55:22;1.60;99.90
3792;DHT22;1911;53.768;11.474;2022-12-07T14:57:51;1.50;99.90
3792;DHT22;1911;53.768;11.474;2022-12-07T15:00:18;1.50;99.90
3792;DHT22;1911;53.768;11.474;2022-12-07T15:02:45;1.50;99.90
3792;DHT22;1911;53.768;11.474;2022-12-07T15:05:11;1.50;99.90
3792;DHT22;1911;53.768;11.474;2022-12-07T15:07:36;1.50;99.90
3792;DHT22;1911;53.768;11.474;2022-12-07T15:10:03;1.50;99.90
3792;DHT22;1911;53.768;11.474;2022-12-07T15:12:28;1.40;99.90
3792;DHT22;1911;53.768;11.474;2022-12-07T15:14:54;1.50;99.90
3792;DHT22;1911;53.768;11.474;2022-12-07T15:17:19;1.40;99.90
3792;DHT22;1911;53.768;11.474;2022-12-07T15:19:45;1.40;99.90
3792;DHT22;1911;53.768;11.474;2022-12-07T15:22:14;1.40;99.90
3792;DHT22;1911;53.768;11.474;2022-12-07T15:24:39;1.40;99.90
3792;DHT22;1911;53.768;11.474;2022-12-07T15:27:05;1.40;99.90
3792;DHT22;1911;53.768;11.474;2022-12-07T15:29:30;1.40;99.90
3792;DHT22;1911;53.768;11.474;2022-12-07T15:31:56;1.30;99.90
3792;DHT22;1911;53.768;11.474;2022-12-07T15:34:26;1.30;99.90
3792;DHT22;1911;53.768;11.474;2022-12-07T15:36:53;1.30;99.90
3792;DHT22;1911;53.768;11.474;2022-12-07T15:39:19;1.30;99.90
3792;DHT22;1911;53.768;11.474;2022-12-07T15:41:44;1.30;99.90
3792;DHT22;1911;53.768;11.474;2022-12-07T15:44:14;1.30;99.90
3792;DHT22;1911;53.768;11.474;2022-12-07T15:46:59;1.20;99.90
3792;DHT22;1911;53.768;11.474;2022-12-07T15:49:25;1.10;1.00
3792;DHT22;1911;53.768;11.474;2022-12-07T15:51:50;1.10;1.00
3792;DHT22;1911;53.768;11.474;2022-12-07T15:56:44;1.00;1.00
3792;DHT22;1911;53.768;11.474;2022-12-07T15:59:10;1.10;1.00
3792;DHT22;1911;53.768;11.474;2022-12-07T16:01:35;1.00;1.00
3792;DHT22;1911;53.768;11.474;2022-12-07T16:04:01;1.00;99.90
3792;DHT22;1911;53.768;11.474;2022-12-07T16:06:27;1.00;99.90
3792;DHT22;1911;53.768;11.474;2022-12-07T16:08:52;1.00;99.90
3792;DHT22;1911;53.768;11.474;2022-12-07T16:11:18;1.00;99.90
3792;DHT22;1911;53.768;11.474;2022-12-07T16:13:43;1.00;99.90
3792;DHT22;1911;53.768;11.474;2022-12-07T16:16:14;0.90;99.90
3792;DHT22;1911;53.768;11.474;2022-12-07T16:18:41;0.90;99.90
3792;DHT22;1911;53.768;11.474;2022-12-07T16:21:06;0.90;99.90
3792;DHT22;1911;53.768;11.474;2022-12-07T16:23:32;0.90;99.90
3792;DHT22;1911;53.768;11.474;2022-12-07T16:26:07;0.90;99.90
3792;DHT22;1911;53.768;11.474;2022-12-07T16:28:33;0.90;99.90
3792;DHT22;1911;53.768;11.474;2022-12-07T16:31:11;0.90;99.90
3792;DHT22;1911;53.768;11.474;2022-12-07T16:33:38;0.90;99.90
3792;DHT22;1911;53.768;11.474;2022-12-07T16:36:06;0.90;99.90
3792;DHT22;1911;53.768;11.474;2022-12-07T16:38:32;0.90;99.90
3792;DHT22;1911;53.768;11.474;2022-12-07T16:40:58;0.80;99.90
3792;DHT22;1911;53.768;11.474;2022-12-07T16:43:23;0.90;99.90
3792;DHT22;1911;53.768;11.474;2022-12-07T16:45:50;0.80;99.90
3792;DHT22;1911;53.768;11.474;2022-12-07T16:48:16;0.80;99.90
3792;DHT22;1911;53.768;11.474;2022-12-07T16:50:43;0.80;99.90
3792;DHT22;1911;53.768;11.474;2022-12-07T16:53:09;0.70;99.90
3792;DHT22;1911;53.768;11.474;2022-12-07T16:55:41;0.70;99.90
3792;DHT22;1911;53.768;11.474;2022-12-07T16:58:08;0.70;99.90
3792;DHT22;1911;53.768;11.474;2022-12-07T17:00:34;0.60;99.90
3792;DHT22;1911;53.768;11.474;2022-12-07T17:03:02;0.60;99.90
3792;DHT22;1911;53.768;11.474;2022-12-07T17:05:28;0.50;99.90
3792;DHT22;1911;53.768;11.474;2022-12-07T17:07:55;0.50;99.90
3792;DHT22;1911;53.768;11.474;2022-12-07T17:10:21;0.50;99.90
3792;DHT22;1911;53.768;11.474;2022-12-07T17:12:48;0.50;99.90
3792;DHT22;1911;53.768;11.474;2022-12-07T17:15:13;0.50;99.90
3792;DHT22;1911;53.768;11.474;2022-12-07T17:18:01;0.40;99.90
3792;DHT22;1911;53.768;11.474;2022-12-07T17:20:27;0.40;99.90
3792;DHT22;1911;53.768;11.474;2022-12-07T17:22:53;0.40;99.90
3792;DHT22;1911;53.768;11.474;2022-12-07T17:25:18;0.30;99.90
3792;DHT22;1911;53.768;11.474;2022-12-07T17:27:45;0.40;99.90
3792;DHT22;1911;53.768;11.474;2022-12-07T17:30:13;0.30;99.90
3792;DHT22;1911;53.768;11.474;2022-12-07T17:32:38;0.40;99.90
3792;DHT22;1911;53.768;11.474;2022-12-07T17:35:05;0.30;99.90
3792;DHT22;1911;53.768;11.474;2022-12-07T17:37:32;0.40;99.90
3792;DHT22;1911;53.768;11.474;2022-12-07T17:39:58;0.40;99.90
3792;DHT22;1911;53.768;11.474;2022-12-07T17:42:24;0.40;99.90
3792;DHT22;1911;53.768;11.474;2022-12-07T17:45:05;0.30;99.90
3792;DHT22;1911;53.768;11.474;2022-12-07T17:47:31;0.30;99.90
3792;DHT22;1911;53.768;11.474;2022-12-07T17:49:57;0.30;99.90
3792;DHT22;1911;53.768;11.474;2022-12-07T17:52:22;0.20;1.00
3792;DHT22;1911;53.768;11.474;2022-12-07T17:55:07;0.10;1.00
3792;DHT22;1911;53.768;11.474;2022-12-07T17:57:32;0.10;1.00
3792;DHT22;1911;53.768;11.474;2022-12-07T17:59:58;0.00;1.00
3792;DHT22;1911;53.768;11.474;2022-12-07T18:02:24;0.00;1.00
3792;DHT22;1911;53.768;11.474;2022-12-07T18:04:49;0.00;1.00
3792;DHT22;1911;53.768;11.474;2022-12-07T18:07:17;0.00;1.00
3792;DHT22;1911;53.768;11.474;2022-12-07T18:09:43;0.00;1.00
3792;DHT22;1911;53.768;11.474;2022-12-07T18:12:08;0.00;1.00
3792;DHT22;1911;53.768;11.474;2022-12-07T18:14:34;0.00;1.00
3792;DHT22;1911;53.768;11.474;2022-12-07T18:17:00;0.00;1.00
3792;DHT22;1911;53.768;11.474;2022-12-07T18:19:25;0.00;1.00
3792;DHT22;1911;53.768;11.474;2022-12-07T18:21:51;-0.10;1.00
3792;DHT22;1911;53.768;11.474;2022-12-07T18:24:17;-0.10;1.00
3792;DHT22;1911;53.768;11.474;2022-12-07T18:26:45;-0.10;1.00
3792;DHT22;1911;53.768;11.474;2022-12-07T18:29:16;-0.10;1.00
3792;DHT22;1911;53.768;11.474;2022-12-07T18:31:43;-0.20;1.00
3792;DHT22;1911;53.768;11.474;2022-12-07T18:34:11;-0.10;1.00
3792;DHT22;1911;53.768;11.474;2022-12-07T18:36:57;-0.10;1.00
3792;DHT22;1911;53.768;11.474;2022-12-07T18:39:23;-0.20;1.00
3792;DHT22;1911;53.768;11.474;2022-12-07T18:41:48;-0.20;1.00
3792;DHT22;1911;53.768;11.474;2022-12-07T18:44:16;-0.20;1.00
3792;DHT22;1911;53.768;11.474;2022-12-07T18:46:42;-0.10;1.00
3792;DHT22;1911;53.768;11.474;2022-12-07T18:49:11;-0.10;1.00